Time;durP1;ratioP1;P1;durP2;ratioP2;P2;SDS_P1;SDS_P2;PMS_P1;PMS_P2;Temp;Humidity;BMP_temperature;BMP_pressure;BME280_temperature;BME280_humidity;BME280_pressure;Samples;Min_cycle;Max_cycle;Signal;HPM_P1;HPM_P2
2021/09/24 00:00:12;;;;;;;;;;;24.60;42.90;;;;;;491208;242;2583;-68
2021/09/24 00:02:13;;;;;;;;;;;24.70;42.80;;;;;;491237;242;1195;-69
2021/09/24 00:04:14;;;;;;;;;;;24.70;42.90;;;;;;491327;242;982;-69
2021/09/24 00:06:16;;;;;;;;;;;24.80;42.70;;;;;;491241;242;1260;-69
2021/09/24 00:08:17;;;;;;;;;;;24.40;43.20;;;;;;491391;242;1089;-69
2021/09/24 00:10:18;;;;;;;;;;;24.60;43.00;;;;;;491377;242;965;-69
2021/09/24 00:12:20;;;;;;;;;;;24.50;43.10;;;;;;491427;242;1199;-68
2021/09/24 00:14:21;;;;;;;;;;;24.60;43.00;;;;;;491290;242;1124;-69
2021/09/24 00:16:22;;;;;;;;;;;24.60;43.00;;;;;;491215;242;1342;-68
2021/09/24 00:18:24;;;;;;;;;;;24.50;43.20;;;;;;491327;242;1114;-68
2021/09/24 00:20:25;;;;;;;;;;;24.40;43.20;;;;;;491432;242;2109;-69
2021/09/24 00:22:26;;;;;;;;;;;24.60;43.00;;;;;;491303;242;1112;-69
2021/09/24 00:24:27;;;;;;;;;;;24.50;43.00;;;;;;491430;242;1045;-68
2021/09/24 00:26:29;;;;;;;;;;;24.40;43.00;;;;;;491177;242;1268;-69
2021/09/24 00:28:30;;;;;;;;;;;24.70;43.00;;;;;;491355;242;1079;-69
2021/09/24 00:30:31;;;;;;;;;;;24.70;42.70;;;;;;491290;242;951;-69
2021/09/24 00:32:33;;;;;;;;;;;24.60;43.10;;;;;;491271;242;1193;-69
2021/09/24 00:34:34;;;;;;;;;;;24.50;43.50;;;;;;491357;242;1030;-69
2021/09/24 00:36:35;;;;;;;;;;;24.50;43.20;;;;;;491223;242;1326;-69
2021/09/24 00:38:39;;;;;;;;;;;24.30;43.20;;;;;;491386;242;1116;-69
2021/09/24 00:40:39;;;;;;;;;;;24.60;43.30;;;;;;491182;242;2117;-69
2021/09/24 00:42:41;;;;;;;;;;;24.30;43.70;;;;;;491243;242;1123;-69
2021/09/24 00:44:42;;;;;;;;;;;24.30;43.50;;;;;;491402;242;925;-68
2021/09/24 00:46:43;;;;;;;;;;;24.30;43.70;;;;;;491300;242;1083;-69
2021/09/24 00:48:46;;;;;;;;;;;24.50;43.30;;;;;;491366;242;1115;-69
2021/09/24 00:50:46;;;;;;;;;;;24.30;43.60;;;;;;491232;242;1412;-69
2021/09/24 00:52:47;;;;;;;;;;;24.30;43.50;;;;;;491254;242;1287;-69
2021/09/24 00:54:49;;;;;;;;;;;24.50;43.50;;;;;;491420;242;1017;-69
2021/09/24 00:56:52;;;;;;;;;;;24.40;43.50;;;;;;491253;242;1056;-69
2021/09/24 00:58:52;;;;;;;;;;;24.50;43.30;;;;;;491203;243;1435;-68
2021/09/24 01:00:54;;;;;;;;;;;24.20;43.50;;;;;;491159;242;2184;-68
2021/09/24 01:02:55;;;;;;;;;;;24.50;43.40;;;;;;491176;242;1204;-68
2021/09/24 01:04:56;;;;;;;;;;;24.20;43.80;;;;;;491393;242;1068;-69
2021/09/24 01:06:57;;;;;;;;;;;24.30;43.70;;;;;;491250;242;1084;-68
2021/09/24 01:08:59;;;;;;;;;;;24.20;43.90;;;;;;491305;242;1053;-68
2021/09/24 01:11:00;;;;;;;;;;;24.30;43.80;;;;;;491222;242;1021;-68
2021/09/24 01:13:01;;;;;;;;;;;24.30;43.90;;;;;;491264;242;1140;-69
2021/09/24 01:15:03;;;;;;;;;;;24.10;43.90;;;;;;491373;242;1007;-69
2021/09/24 01:17:04;;;;;;;;;;;23.90;44.10;;;;;;491275;242;1018;-69
2021/09/24 01:19:06;;;;;;;;;;;24.30;43.90;;;;;;491345;242;986;-69
2021/09/24 01:21:07;;;;;;;;;;;24.10;44.30;;;;;;491250;242;2180;-69
2021/09/24 01:23:09;;;;;;;;;;;24.30;43.80;;;;;;491283;242;1101;-69
2021/09/24 01:25:10;;;;;;;;;;;24.20;44.10;;;;;;491221;242;1008;-68
2021/09/24 01:27:11;;;;;;;;;;;24.30;43.70;;;;;;491143;242;1039;-68
2021/09/24 01:29:12;;;;;;;;;;;24.40;43.80;;;;;;491265;242;997;-68
2021/09/24 01:31:14;;;;;;;;;;;24.30;43.70;;;;;;491338;242;1051;-69
2021/09/24 01:33:15;;;;;;;;;;;24.40;43.60;;;;;;491423;242;963;-68
2021/09/24 01:35:16;;;;;;;;;;;24.20;43.70;;;;;;491324;242;1058;-69
2021/09/24 01:37:18;;;;;;;;;;;24.50;43.50;;;;;;491439;242;1197;-68
2021/09/24 01:39:19;;;;;;;;;;;24.40;43.70;;;;;;491336;242;1132;-68
2021/09/24 01:41:20;;;;;;;;;;;24.50;43.50;;;;;;491288;242;2121;-69
2021/09/24 01:43:22;;;;;;;;;;;24.50;43.40;;;;;;491369;242;1022;-69
2021/09/24 01:45:23;;;;;;;;;;;24.50;43.40;;;;;;491337;242;993;-69
2021/09/24 01:47:25;;;;;;;;;;;24.40;43.50;;;;;;491259;242;1094;-68
2021/09/24 01:49:26;;;;;;;;;;;24.50;43.40;;;;;;491334;242;1076;-69
2021/09/24 01:51:27;;;;;;;;;;;24.50;43.30;;;;;;491322;242;1194;-69
2021/09/24 01:53:29;;;;;;;;;;;24.40;43.50;;;;;;491317;242;1244;-69
2021/09/24 01:55:30;;;;;;;;;;;24.50;43.30;;;;;;491419;242;1033;-69
2021/09/24 01:57:31;;;;;;;;;;;24.50;43.50;;;;;;491305;242;1088;-69
2021/09/24 01:59:33;;;;;;;;;;;24.30;43.70;;;;;;491322;242;1019;-69
2021/09/24 02:01:34;;;;;;;;;;;24.40;43.60;;;;;;491226;242;2109;-69
2021/09/24 02:03:35;;;;;;;;;;;24.40;43.70;;;;;;491318;242;1006;-69
2021/09/24 02:05:36;;;;;;;;;;;24.50;43.40;;;;;;491302;242;1073;-68
2021/09/24 02:07:38;;;;;;;;;;;24.50;43.50;;;;;;491280;242;1023;-68
2021/09/24 02:09:39;;;;;;;;;;;24.50;43.40;;;;;;491310;242;1173;-68
2021/09/24 02:11:40;;;;;;;;;;;24.50;43.30;;;;;;491168;242;1201;-69
2021/09/24 02:13:42;;;;;;;;;;;24.50;43.40;;;;;;491269;242;1079;-69
2021/09/24 02:15:43;;;;;;;;;;;24.60;43.30;;;;;;491270;242;1420;-69
2021/09/24 02:17:44;;;;;;;;;;;24.20;43.70;;;;;;491345;242;1051;-69
2021/09/24 02:19:46;;;;;;;;;;;24.40;43.60;;;;;;491313;242;1032;-69
2021/09/24 02:21:47;;;;;;;;;;;24.50;43.30;;;;;;491226;242;2192;-69
2021/09/24 02:23:48;;;;;;;;;;;24.40;43.30;;;;;;491296;242;1193;-69
2021/09/24 02:25:50;;;;;;;;;;;24.40;43.50;;;;;;491264;242;1043;-69
2021/09/24 02:27:51;;;;;;;;;;;24.60;43.30;;;;;;491192;242;1068;-68
2021/09/24 02:29:52;;;;;;;;;;;24.50;43.40;;;;;;491391;242;1204;-68
2021/09/24 02:31:54;;;;;;;;;;;24.20;43.60;;;;;;491283;242;1006;-68
2021/09/24 02:33:55;;;;;;;;;;;24.30;43.80;;;;;;491271;242;1059;-68
2021/09/24 02:35:56;;;;;;;;;;;24.50;43.50;;;;;;491256;242;1082;-69
2021/09/24 02:37:58;;;;;;;;;;;24.50;43.40;;;;;;491238;242;1082;-68
2021/09/24 02:39:59;;;;;;;;;;;24.50;43.30;;;;;;491372;242;1176;-69
2021/09/24 02:42:00;;;;;;;;;;;24.50;43.40;;;;;;491354;242;2105;-68
2021/09/24 02:44:02;;;;;;;;;;;24.40;43.40;;;;;;491384;242;1098;-68
2021/09/24 02:46:03;;;;;;;;;;;24.60;43.30;;;;;;491358;242;1047;-68
2021/09/24 02:48:04;;;;;;;;;;;24.50;43.40;;;;;;491272;242;1209;-68
2021/09/24 02:50:05;;;;;;;;;;;24.30;43.60;;;;;;491405;242;1046;-68
2021/09/24 02:52:07;;;;;;;;;;;24.30;43.80;;;;;;491251;242;1146;-68
2021/09/24 02:54:08;;;;;;;;;;;24.30;43.90;;;;;;491349;242;1187;-68
2021/09/24 02:56:09;;;;;;;;;;;24.30;43.70;;;;;;491353;242;1186;-68
2021/09/24 02:58:11;;;;;;;;;;;24.30;43.90;;;;;;491295;242;999;-68
2021/09/24 03:00:13;;;;;;;;;;;24.30;43.70;;;;;;491362;242;946;-69
2021/09/24 03:02:14;;;;;;;;;;;24.40;43.70;;;;;;491251;242;2117;-69
2021/09/24 03:04:16;;;;;;;;;;;24.30;43.80;;;;;;491295;242;983;-69
2021/09/24 03:06:17;;;;;;;;;;;24.10;43.90;;;;;;491174;242;1287;-68
2021/09/24 03:08:18;;;;;;;;;;;24.20;43.90;;;;;;491318;242;1142;-68
2021/09/24 03:10:20;;;;;;;;;;;24.30;43.90;;;;;;491269;242;1208;-69
2021/09/24 03:12:21;;;;;;;;;;;24.30;43.70;;;;;;491194;242;1211;-68
2021/09/24 03:14:22;;;;;;;;;;;24.10;44.10;;;;;;491276;242;1049;-69
2021/09/24 03:16:24;;;;;;;;;;;24.10;44.20;;;;;;491179;242;1205;-69
2021/09/24 03:18:25;;;;;;;;;;;24.20;43.90;;;;;;491192;242;1048;-68
2021/09/24 03:20:26;;;;;;;;;;;24.00;44.20;;;;;;491307;242;1033;-69
2021/09/24 03:22:28;;;;;;;;;;;24.30;43.90;;;;;;491193;242;2117;-69
2021/09/24 03:24:29;;;;;;;;;;;24.30;43.80;;;;;;491301;242;1097;-68
2021/09/24 03:26:30;;;;;;;;;;;24.30;43.80;;;;;;491262;242;1531;-68
2021/09/24 03:28:32;;;;;;;;;;;24.00;44.20;;;;;;491260;242;1168;-68
2021/09/24 03:30:33;;;;;;;;;;;24.10;44.20;;;;;;491319;242;1291;-68
2021/09/24 03:32:34;;;;;;;;;;;24.00;44.10;;;;;;491204;242;1186;-68
2021/09/24 03:34:36;;;;;;;;;;;24.10;44.30;;;;;;491353;242;1048;-68
2021/09/24 03:36:37;;;;;;;;;;;24.20;44.00;;;;;;491327;242;1328;-69
2021/09/24 03:38:38;;;;;;;;;;;24.00;44.20;;;;;;491264;242;1102;-69
2021/09/24 03:40:39;;;;;;;;;;;23.90;44.30;;;;;;491291;242;1222;-69
2021/09/24 03:42:41;;;;;;;;;;;24.30;43.80;;;;;;491307;242;2177;-68
2021/09/24 03:44:42;;;;;;;;;;;24.10;43.70;;;;;;491290;242;1055;-69
2021/09/24 03:46:43;;;;;;;;;;;24.30;43.40;;;;;;491237;242;1128;-68
2021/09/24 03:48:45;;;;;;;;;;;24.20;43.90;;;;;;491243;242;948;-68
2021/09/24 03:50:46;;;;;;;;;;;24.30;43.80;;;;;;491331;242;1074;-68
2021/09/24 03:52:47;;;;;;;;;;;24.20;43.80;;;;;;491306;242;1229;-68
2021/09/24 03:54:49;;;;;;;;;;;24.00;43.80;;;;;;491331;242;1144;-68
2021/09/24 03:56:50;;;;;;;;;;;24.40;43.40;;;;;;491380;242;1202;-68
2021/09/24 03:58:51;;;;;;;;;;;24.50;43.20;;;;;;491320;242;1062;-68
2021/09/24 04:00:54;;;;;;;;;;;24.40;43.40;;;;;;491183;242;1138;-69
2021/09/24 04:02:54;;;;;;;;;;;24.40;43.50;;;;;;491128;242;2188;-68
2021/09/24 04:04:56;;;;;;;;;;;24.40;43.40;;;;;;491190;242;1073;-68
2021/09/24 04:06:57;;;;;;;;;;;24.30;43.50;;;;;;491219;242;1120;-68
2021/09/24 04:08:58;;;;;;;;;;;24.30;43.30;;;;;;491260;242;1074;-68
2021/09/24 04:11:00;;;;;;;;;;;24.40;43.20;;;;;;491197;242;1193;-68
2021/09/24 04:13:01;;;;;;;;;;;24.40;43.20;;;;;;491305;242;1092;-68
2021/09/24 04:15:02;;;;;;;;;;;24.50;43.00;;;;;;491226;242;1109;-68
2021/09/24 04:17:03;;;;;;;;;;;24.30;43.30;;;;;;491199;242;1435;-68
2021/09/24 04:19:05;;;;;;;;;;;24.30;43.30;;;;;;491282;242;1202;-68
2021/09/24 04:21:06;;;;;;;;;;;24.00;43.40;;;;;;491148;242;1098;-68
2021/09/24 04:23:07;;;;;;;;;;;24.20;43.30;;;;;;491164;242;2141;-68
2021/09/24 04:25:09;;;;;;;;;;;23.90;43.80;;;;;;491212;242;1133;-68
2021/09/24 04:27:10;;;;;;;;;;;24.00;43.90;;;;;;491108;242;1157;-68
2021/09/24 04:29:11;;;;;;;;;;;23.90;44.20;;;;;;491171;242;1107;-68
2021/09/24 04:31:13;;;;;;;;;;;23.90;44.10;;;;;;491048;242;1139;-68
2021/09/24 04:33:14;;;;;;;;;;;23.70;44.40;;;;;;491109;242;1140;-68
2021/09/24 04:35:16;;;;;;;;;;;23.50;44.80;;;;;;491086;242;1090;-68
2021/09/24 04:37:17;;;;;;;;;;;23.40;44.70;;;;;;491043;242;1274;-68
2021/09/24 04:39:18;;;;;;;;;;;23.60;44.40;;;;;;491199;242;1035;-68
2021/09/24 04:41:20;;;;;;;;;;;23.70;44.40;;;;;;491087;242;1333;-68
2021/09/24 04:43:21;;;;;;;;;;;23.80;44.40;;;;;;491133;242;2184;-68
2021/09/24 04:45:22;;;;;;;;;;;23.70;44.60;;;;;;491172;242;1029;-68
2021/09/24 04:47:24;;;;;;;;;;;23.70;44.30;;;;;;491185;242;1118;-68
2021/09/24 04:49:25;;;;;;;;;;;23.70;44.20;;;;;;491135;242;1032;-68
2021/09/24 04:51:26;;;;;;;;;;;23.80;44.10;;;;;;491178;242;1139;-68
2021/09/24 04:53:28;;;;;;;;;;;23.80;44.30;;;;;;491194;242;1082;-68
2021/09/24 04:55:29;;;;;;;;;;;23.60;44.60;;;;;;491164;242;1161;-68
2021/09/24 04:57:30;;;;;;;;;;;23.70;44.60;;;;;;491159;242;1135;-68
2021/09/24 04:59:32;;;;;;;;;;;23.50;44.60;;;;;;491178;242;1028;-68
2021/09/24 05:01:33;;;;;;;;;;;23.70;44.20;;;;;;491070;242;1010;-68
2021/09/24 05:03:35;;;;;;;;;;;23.70;44.30;;;;;;491017;242;2193;-68
2021/09/24 05:05:36;;;;;;;;;;;23.60;44.50;;;;;;491046;242;1056;-68
2021/09/24 05:07:37;;;;;;;;;;;23.50;44.90;;;;;;490945;242;1330;-68
2021/09/24 05:09:38;;;;;;;;;;;23.30;45.10;;;;;;491109;242;1066;-68
2021/09/24 05:11:40;;;;;;;;;;;23.20;45.20;;;;;;491111;242;1183;-68
2021/09/24 05:13:41;;;;;;;;;;;23.60;44.80;;;;;;491281;242;1081;-68
2021/09/24 05:15:42;;;;;;;;;;;23.50;44.80;;;;;;491068;242;1091;-68
2021/09/24 05:17:44;;;;;;;;;;;23.40;45.10;;;;;;491030;242;1314;-68
2021/09/24 05:19:45;;;;;;;;;;;23.10;45.30;;;;;;491119;242;1031;-68
2021/09/24 05:21:46;;;;;;;;;;;23.10;45.40;;;;;;491009;242;1152;-68
2021/09/24 05:23:48;;;;;;;;;;;23.60;44.80;;;;;;491088;242;2102;-68
2021/09/24 05:25:49;;;;;;;;;;;23.60;44.80;;;;;;491076;242;1193;-69
2021/09/24 05:27:50;;;;;;;;;;;23.50;44.90;;;;;;491084;242;1206;-69
2021/09/24 05:29:52;;;;;;;;;;;23.10;45.20;;;;;;491136;242;1107;-68
2021/09/24 05:31:53;;;;;;;;;;;23.40;44.80;;;;;;491091;242;1162;-68
2021/09/24 05:33:55;;;;;;;;;;;23.50;44.80;;;;;;491135;242;1040;-68
2021/09/24 05:35:57;;;;;;;;;;;23.60;44.60;;;;;;491022;242;1042;-68
2021/09/24 05:37:57;;;;;;;;;;;23.50;44.50;;;;;;491064;242;1421;-68
2021/09/24 05:39:59;;;;;;;;;;;23.80;44.40;;;;;;491012;242;1037;-68
2021/09/24 05:42:00;;;;;;;;;;;23.60;44.70;;;;;;490800;242;1302;-68
2021/09/24 05:44:01;;;;;;;;;;;23.50;45.00;;;;;;490993;242;2125;-68
2021/09/24 05:46:03;;;;;;;;;;;23.20;45.20;;;;;;490953;242;1048;-68
2021/09/24 05:48:04;;;;;;;;;;;23.40;44.80;;;;;;490857;242;1197;-68
2021/09/24 05:50:10;;;;;;;;;;;23.70;44.60;;;;;;490979;242;1053;-68
2021/09/24 05:52:07;;;;;;;;;;;23.50;45.00;;;;;;490520;243;1247;-68
2021/09/24 05:54:08;;;;;;;;;;;23.50;44.90;;;;;;490900;242;1131;-68
2021/09/24 05:56:09;;;;;;;;;;;23.40;44.80;;;;;;490862;242;1156;-68
2021/09/24 05:58:11;;;;;;;;;;;23.40;45.00;;;;;;490867;242;1064;-68
2021/09/24 06:00:12;;;;;;;;;;;23.60;45.10;;;;;;490841;242;1042;-68
2021/09/24 06:02:13;;;;;;;;;;;23.40;45.40;;;;;;490764;242;2248;-68
2021/09/24 06:04:15;;;;;;;;;;;23.60;45.10;;;;;;490816;242;1064;-68
2021/09/24 06:06:16;;;;;;;;;;;23.50;44.90;;;;;;490740;242;1061;-68
2021/09/24 06:08:17;;;;;;;;;;;23.70;44.90;;;;;;490457;242;1098;-68
2021/09/24 06:10:19;;;;;;;;;;;23.60;45.00;;;;;;490468;242;1148;-68
2021/09/24 06:12:20;;;;;;;;;;;23.40;45.40;;;;;;490373;242;1183;-68
2021/09/24 06:14:21;;;;;;;;;;;23.40;45.20;;;;;;490425;242;1204;-68
2021/09/24 06:16:23;;;;;;;;;;;23.40;45.20;;;;;;490493;242;1089;-68
2021/09/24 06:18:29;;;;;;;;;;;23.50;45.20;;;;;;490469;242;1149;-68
2021/09/24 06:20:26;;;;;;;;;;;23.30;45.60;;;;;;490017;243;1573;-68
2021/09/24 06:22:27;;;;;;;;;;;23.10;45.70;;;;;;490121;242;2184;-68
2021/09/24 06:24:29;;;;;;;;;;;23.10;45.60;;;;;;490407;242;1118;-69
2021/09/24 06:26:30;;;;;;;;;;;23.50;45.50;;;;;;490403;242;1230;-69
2021/09/24 06:28:31;;;;;;;;;;;23.20;45.80;;;;;;490886;242;1229;-68
2021/09/24 06:30:33;;;;;;;;;;;23.10;45.90;;;;;;490935;242;921;-68
2021/09/24 06:32:35;;;;;;;;;;;23.20;45.70;;;;;;490948;242;1137;-68
2021/09/24 06:34:36;;;;;;;;;;;23.40;45.70;;;;;;491402;242;859;-69
2021/09/24 06:36:37;;;;;;;;;;;23.30;45.70;;;;;;491115;242;1219;-68
2021/09/24 06:38:38;;;;;;;;;;;23.20;45.60;;;;;;491373;242;823;-68
2021/09/24 06:40:40;;;;;;;;;;;23.50;45.30;;;;;;490825;242;1279;-68
2021/09/24 06:42:41;;;;;;;;;;;23.50;45.50;;;;;;490741;242;2196;-68
2021/09/24 06:44:42;;;;;;;;;;;23.20;45.80;;;;;;490895;242;811;-69
2021/09/24 06:46:44;;;;;;;;;;;23.30;45.50;;;;;;490984;242;1158;-69
2021/09/24 06:48:45;;;;;;;;;;;23.60;45.20;;;;;;490889;242;820;-68
2021/09/24 06:50:46;;;;;;;;;;;23.40;45.80;;;;;;490794;242;1083;-68
2021/09/24 06:52:48;;;;;;;;;;;23.20;46.00;;;;;;491271;242;888;-68
2021/09/24 06:54:49;;;;;;;;;;;23.50;45.40;;;;;;491312;242;895;-68
2021/09/24 06:56:50;;;;;;;;;;;23.50;45.60;;;;;;491239;242;1141;-68
2021/09/24 06:58:52;;;;;;;;;;;23.30;46.20;;;;;;490843;242;1116;-68
2021/09/24 07:00:53;;;;;;;;;;;23.00;46.20;;;;;;491277;242;1242;-68
2021/09/24 07:02:54;;;;;;;;;;;23.40;45.80;;;;;;491330;242;2192;-68
2021/09/24 07:04:56;;;;;;;;;;;23.40;45.90;;;;;;491242;242;873;-69
2021/09/24 07:06:57;;;;;;;;;;;23.60;45.50;;;;;;491136;242;1281;-69
2021/09/24 07:08:58;;;;;;;;;;;23.70;45.30;;;;;;491199;242;880;-68
2021/09/24 07:10:59;;;;;;;;;;;23.60;45.60;;;;;;491141;242;1115;-68
2021/09/24 07:13:01;;;;;;;;;;;23.30;46.00;;;;;;491041;242;1252;-68
2021/09/24 07:15:02;;;;;;;;;;;23.20;45.80;;;;;;491338;242;1149;-68
2021/09/24 07:17:04;;;;;;;;;;;23.50;45.70;;;;;;490869;242;1155;-68
2021/09/24 07:19:05;;;;;;;;;;;23.60;45.70;;;;;;490821;242;1278;-68
2021/09/24 07:21:07;;;;;;;;;;;23.40;45.90;;;;;;490781;242;1176;-68
2021/09/24 07:23:08;;;;;;;;;;;23.40;45.60;;;;;;490808;242;2177;-68
2021/09/24 07:25:09;;;;;;;;;;;23.70;45.80;;;;;;490798;242;858;-68
2021/09/24 07:27:10;;;;;;;;;;;23.50;46.00;;;;;;490333;242;1181;-68
2021/09/24 07:29:12;;;;;;;;;;;23.30;46.20;;;;;;490343;242;1070;-68
2021/09/24 07:31:13;;;;;;;;;;;23.70;45.80;;;;;;490668;242;786;-68
2021/09/24 07:33:14;;;;;;;;;;;23.40;46.20;;;;;;490219;242;1349;-69
2021/09/24 07:35:16;;;;;;;;;;;23.20;46.50;;;;;;491002;242;881;-68
2021/09/24 07:37:17;;;;;;;;;;;23.50;45.90;;;;;;490307;242;1141;-68
2021/09/24 07:39:18;;;;;;;;;;;23.50;46.10;;;;;;490376;242;815;-68
2021/09/24 07:41:20;;;;;;;;;;;23.10;46.80;;;;;;490681;242;811;-68
2021/09/24 07:43:21;;;;;;;;;;;23.40;46.20;;;;;;490465;242;2197;-68
2021/09/24 07:45:22;;;;;;;;;;;23.40;46.30;;;;;;490782;242;783;-68
2021/09/24 07:47:24;;;;;;;;;;;23.40;46.20;;;;;;490433;242;802;-68
2021/09/24 07:49:25;;;;;;;;;;;23.30;46.10;;;;;;490552;242;807;-68
2021/09/24 07:51:26;;;;;;;;;;;23.60;46.10;;;;;;490675;242;806;-68
2021/09/24 07:53:28;;;;;;;;;;;23.30;46.50;;;;;;490590;242;804;-68
2021/09/24 07:55:29;;;;;;;;;;;23.10;46.80;;;;;;490797;242;802;-68
2021/09/24 07:57:30;;;;;;;;;;;23.30;46.30;;;;;;490713;242;1363;-68
2021/09/24 07:59:31;;;;;;;;;;;23.20;46.80;;;;;;490302;242;1065;-68
2021/09/24 08:01:33;;;;;;;;;;;23.40;46.70;;;;;;490030;242;791;-68
2021/09/24 08:03:34;;;;;;;;;;;23.40;46.50;;;;;;490525;242;2191;-68
2021/09/24 08:05:35;;;;;;;;;;;23.20;46.50;;;;;;490083;242;1086;-68
2021/09/24 08:07:37;;;;;;;;;;;23.40;46.30;;;;;;490564;242;885;-68
2021/09/24 08:09:38;;;;;;;;;;;23.60;46.10;;;;;;490721;242;804;-69
2021/09/24 08:11:39;;;;;;;;;;;23.70;45.80;;;;;;490916;242;1583;-68
2021/09/24 08:13:41;;;;;;;;;;;23.70;45.80;;;;;;490415;242;1082;-68
2021/09/24 08:15:43;;;;;;;;;;;23.80;45.50;;;;;;490138;242;1461;-68
2021/09/24 08:17:44;;;;;;;;;;;23.80;45.60;;;;;;490146;242;800;-68
2021/09/24 08:19:45;;;;;;;;;;;24.00;45.30;;;;;;490725;242;792;-68
2021/09/24 08:21:46;;;;;;;;;;;24.00;45.50;;;;;;490493;242;1101;-68
2021/09/24 08:23:48;;;;;;;;;;;23.60;46.10;;;;;;490504;242;2164;-68
2021/09/24 08:25:49;;;;;;;;;;;23.70;45.90;;;;;;490737;242;846;-68
2021/09/24 08:27:50;;;;;;;;;;;23.80;45.70;;;;;;490652;242;964;-69
2021/09/24 08:29:52;;;;;;;;;;;23.80;46.00;;;;;;490250;242;1097;-69
2021/09/24 08:31:53;;;;;;;;;;;23.90;45.70;;;;;;490360;242;897;-68
2021/09/24 08:33:57;;;;;;;;;;;24.00;45.50;;;;;;490678;242;836;-68
2021/09/24 08:35:55;;;;;;;;;;;24.00;45.60;;;;;;490535;243;1358;-69
2021/09/24 08:37:57;;;;;;;;;;;23.80;45.80;;;;;;490410;242;1367;-68
2021/09/24 08:39:58;;;;;;;;;;;24.00;45.50;;;;;;490613;242;837;-69
2021/09/24 08:41:59;;;;;;;;;;;24.10;45.50;;;;;;491048;242;955;-68
2021/09/24 08:44:01;;;;;;;;;;;23.70;45.80;;;;;;490560;242;2191;-68
2021/09/24 08:46:02;;;;;;;;;;;24.00;45.80;;;;;;490152;242;776;-68
2021/09/24 08:48:03;;;;;;;;;;;24.20;45.40;;;;;;490109;242;1114;-68
2021/09/24 08:50:06;;;;;;;;;;;23.90;45.90;;;;;;490181;242;791;-68
2021/09/24 08:52:07;;;;;;;;;;;24.00;45.70;;;;;;490701;242;1005;-68
2021/09/24 08:54:09;;;;;;;;;;;24.20;45.40;;;;;;490799;242;774;-68
2021/09/24 08:56:12;;;;;;;;;;;24.00;45.50;;;;;;490338;242;780;-68
2021/09/24 08:58:12;;;;;;;;;;;24.30;45.10;;;;;;490826;242;1309;-68
2021/09/24 09:00:13;;;;;;;;;;;24.30;45.30;;;;;;490327;242;1085;-68
2021/09/24 09:02:14;;;;;;;;;;;24.20;45.20;;;;;;490596;242;822;-68
2021/09/24 09:04:16;;;;;;;;;;;24.20;45.20;;;;;;490822;242;2165;-68
2021/09/24 09:06:17;;;;;;;;;;;24.10;45.80;;;;;;490895;242;664;-68
2021/09/24 09:08:19;;;;;;;;;;;23.90;45.80;;;;;;490836;242;735;-68
2021/09/24 09:10:20;;;;;;;;;;;24.30;45.60;;;;;;490291;243;1356;-68
2021/09/24 09:12:21;;;;;;;;;;;24.20;45.60;;;;;;489274;242;1182;-68
2021/09/24 09:14:23;;;;;;;;;;;24.30;45.50;;;;;;490272;242;1073;-68
2021/09/24 09:16:23;;;;;;;;;;;23.70;46.30;;;;;;490471;242;1276;-68
2021/09/24 09:18:25;;;;;;;;;;;23.60;46.90;;;;;;490791;242;1213;-68
2021/09/24 09:20:29;;;;;;;;;;;23.30;47.30;;;;;;490822;242;1262;-68
2021/09/24 09:22:28;;;;;;;;;;;23.40;47.40;;;;;;490736;242;1383;-68
2021/09/24 09:24:29;;;;;;;;;;;23.10;47.70;;;;;;490463;242;2172;-68
2021/09/24 09:26:30;;;;;;;;;;;23.00;47.90;;;;;;490745;242;869;-68
2021/09/24 09:28:32;;;;;;;;;;;23.40;47.60;;;;;;490772;242;1259;-68
2021/09/24 09:30:33;;;;;;;;;;;23.10;47.80;;;;;;490483;242;1092;-69
2021/09/24 09:32:34;;;;;;;;;;;23.30;48.00;;;;;;490399;242;976;-69
2021/09/24 09:34:36;;;;;;;;;;;23.00;48.00;;;;;;490046;242;834;-69
2021/09/24 09:36:37;;;;;;;;;;;23.50;47.30;;;;;;490240;242;1164;-69
2021/09/24 09:38:38;;;;;;;;;;;23.30;47.70;;;;;;490369;242;728;-69
2021/09/24 09:40:39;;;;;;;;;;;23.10;47.80;;;;;;490395;242;1375;-69
2021/09/24 09:42:41;;;;;;;;;;;23.00;47.80;;;;;;490354;242;747;-68
2021/09/24 09:44:42;;;;;;;;;;;23.20;48.00;;;;;;490571;238;2188;-68
2021/09/24 09:46:43;;;;;;;;;;;23.40;47.40;;;;;;490553;242;843;-68
2021/09/24 09:48:46;;;;;;;;;;;23.80;46.50;;;;;;491016;242;840;-68
2021/09/24 09:50:47;;;;;;;;;;;23.90;46.10;;;;;;491270;242;986;-68
2021/09/24 09:52:48;;;;;;;;;;;24.10;45.80;;;;;;491076;242;779;-68
2021/09/24 09:54:49;;;;;;;;;;;24.10;45.80;;;;;;491081;242;799;-68
2021/09/24 09:56:51;;;;;;;;;;;24.10;45.70;;;;;;490531;242;749;-68
2021/09/24 09:58:52;;;;;;;;;;;24.00;45.90;;;;;;491036;242;802;-68
2021/09/24 10:00:53;;;;;;;;;;;24.00;45.80;;;;;;490310;242;1162;-68
2021/09/24 10:02:55;;;;;;;;;;;24.20;45.60;;;;;;490350;242;782;-68
2021/09/24 10:04:57;;;;;;;;;;;24.20;45.60;;;;;;490503;242;2180;-68
2021/09/24 10:06:57;;;;;;;;;;;24.20;45.50;;;;;;490906;242;1277;-68
2021/09/24 10:08:58;;;;;;;;;;;24.20;45.50;;;;;;490964;242;790;-68
2021/09/24 10:11:00;;;;;;;;;;;24.40;45.30;;;;;;491114;242;1212;-68
2021/09/24 10:13:01;;;;;;;;;;;24.40;45.30;;;;;;490749;242;851;-68
2021/09/24 10:15:02;;;;;;;;;;;24.20;45.40;;;;;;490536;242;1196;-69
2021/09/24 10:17:04;;;;;;;;;;;24.40;45.30;;;;;;489793;242;1168;-69
2021/09/24 10:19:05;;;;;;;;;;;24.20;45.70;;;;;;490772;242;887;-69
2021/09/24 10:21:06;;;;;;;;;;;24.30;45.50;;;;;;490734;242;1066;-69
2021/09/24 10:23:08;;;;;;;;;;;24.30;45.50;;;;;;491153;242;967;-69
2021/09/24 10:25:09;;;;;;;;;;;24.30;45.40;;;;;;490537;242;2179;-69
2021/09/24 10:27:10;;;;;;;;;;;24.50;45.20;;;;;;490158;242;1190;-69
2021/09/24 10:29:12;;;;;;;;;;;24.40;45.10;;;;;;490238;242;1142;-69
2021/09/24 10:31:13;;;;;;;;;;;24.40;45.00;;;;;;490293;242;1360;-69
2021/09/24 10:33:16;;;;;;;;;;;24.50;45.00;;;;;;490318;242;1085;-68
2021/09/24 10:35:16;;;;;;;;;;;24.60;44.70;;;;;;490212;242;1398;-68
2021/09/24 10:37:17;;;;;;;;;;;24.50;44.80;;;;;;490216;242;1097;-68
2021/09/24 10:39:18;;;;;;;;;;;24.60;44.80;;;;;;490326;242;1101;-68
2021/09/24 10:41:20;;;;;;;;;;;24.30;45.40;;;;;;490292;242;1169;-69
2021/09/24 10:43:21;;;;;;;;;;;24.40;45.30;;;;;;490279;242;1096;-69
2021/09/24 10:45:22;;;;;;;;;;;24.40;45.20;;;;;;490265;242;2172;-68
2021/09/24 10:47:24;;;;;;;;;;;24.40;45.10;;;;;;490154;242;1114;-68
2021/09/24 10:49:26;;;;;;;;;;;24.40;45.10;;;;;;490254;242;1221;-69
2021/09/24 10:51:26;;;;;;;;;;;24.50;44.90;;;;;;490671;243;2027;-68
2021/09/24 10:53:28;;;;;;;;;;;24.60;44.70;;;;;;490046;242;1117;-68
2021/09/24 10:55:29;;;;;;;;;;;24.40;44.90;;;;;;490325;242;1049;-69
2021/09/24 10:57:30;;;;;;;;;;;24.50;44.60;;;;;;490267;242;1188;-69
2021/09/24 10:59:33;;;;;;;;;;;24.40;44.90;;;;;;490362;242;1145;-69
2021/09/24 11:01:33;;;;;;;;;;;24.40;44.70;;;;;;490186;243;1425;-69
2021/09/24 11:03:34;;;;;;;;;;;24.30;45.10;;;;;;490340;242;1103;-69
2021/09/24 11:05:35;;;;;;;;;;;24.30;45.00;;;;;;490367;242;2121;-69
2021/09/24 11:07:37;;;;;;;;;;;24.30;44.90;;;;;;490424;242;1175;-69
2021/09/24 11:09:38;;;;;;;;;;;24.10;45.10;;;;;;490667;242;1149;-69
2021/09/24 11:11:40;;;;;;;;;;;24.00;45.40;;;;;;490570;242;1167;-69
2021/09/24 11:13:42;;;;;;;;;;;24.10;45.30;;;;;;489928;242;1127;-68
2021/09/24 11:15:43;;;;;;;;;;;24.20;45.10;;;;;;490484;242;1218;-68
2021/09/24 11:17:46;;;;;;;;;;;24.00;45.40;;;;;;490422;242;1134;-68
2021/09/24 11:19:46;;;;;;;;;;;24.20;45.00;;;;;;490493;242;1351;-68
2021/09/24 11:21:47;;;;;;;;;;;24.30;44.80;;;;;;490512;242;1118;-68
2021/09/24 11:23:49;;;;;;;;;;;24.10;45.00;;;;;;490636;242;1152;-68
2021/09/24 11:25:50;;;;;;;;;;;24.30;44.90;;;;;;490630;242;2192;-69
2021/09/24 11:27:54;;;;;;;;;;;24.40;44.70;;;;;;490602;242;1076;-69
2021/09/24 11:29:53;;;;;;;;;;;24.40;44.60;;;;;;490412;242;1406;-69
2021/09/24 11:31:54;;;;;;;;;;;24.40;44.70;;;;;;490305;242;1163;-69
2021/09/24 11:33:55;;;;;;;;;;;24.40;44.50;;;;;;490323;242;1081;-69
2021/09/24 11:35:57;;;;;;;;;;;24.50;44.20;;;;;;490225;242;1247;-69
2021/09/24 11:37:58;;;;;;;;;;;24.50;44.20;;;;;;490264;242;1106;-69
2021/09/24 11:39:59;;;;;;;;;;;24.50;44.30;;;;;;490233;242;1192;-69
2021/09/24 11:42:01;;;;;;;;;;;24.50;44.10;;;;;;490202;242;1192;-69
2021/09/24 11:44:02;;;;;;;;;;;24.50;44.20;;;;;;490226;242;1079;-68
2021/09/24 11:46:03;;;;;;;;;;;24.40;44.60;;;;;;490477;242;2117;-69
2021/09/24 11:48:08;;;;;;;;;;;24.30;44.50;;;;;;490438;242;1125;-69
2021/09/24 11:50:06;;;;;;;;;;;24.30;44.60;;;;;;490240;243;1319;-68
2021/09/24 11:52:08;;;;;;;;;;;24.30;44.80;;;;;;490289;242;1129;-68
2021/09/24 11:54:09;;;;;;;;;;;24.20;44.70;;;;;;490332;242;1140;-68
2021/09/24 11:56:10;;;;;;;;;;;24.40;44.60;;;;;;490382;242;1161;-68
2021/09/24 11:58:12;;;;;;;;;;;24.30;44.60;;;;;;490624;242;1036;-68